Nearby METAR Reports

 

KLOM - Philly Wings F, Pennsylvania, USA
Distance from station: SW 6mi, 10km
Updated: Tue, 21-Oct-2014 9:15pm EDT
Clear
Clear
 Wind from calm
Wind: Calm
Temperature: 59°F , 15°C
Dew Point: 50°F , 10°C
Humidity: 72%
Barometer: 29.87 inHg , 1011.5 hPa
Clouds: Clear
Visibility: 10 miles , 16 km
2014/10/22 01:15 KLOM 220115Z AUTO 00000KT 10SM CLR 15/10 A2987 RMK AO1
KDYL - Doylestown, Pennsylvania, USA
Distance from station: NNE 10mi, 17km
Updated: Tue, 21-Oct-2014 8:54pm EDT
Mostly cloudy
Mostly cloudy
 Wind from N
Wind: N 6 mph , 9 km/h
Temperature: 55°F , 13°C
Dew Point: 52°F , 11°C
Humidity: 88%
Barometer: 29.87 inHg , 1011.5 hPa
Clouds: Mostly cloudy
Visibility: 10 miles , 16 km
Cloud details: Partly cloudy 2600 ft
Mostly cloudy 3300 ft
2014/10/22 00:54 KDYL 220054Z AUTO 01005KT 10SM SCT026 BKN033 13/11 A2987 RMK AO2 SLP117 T01330106
KPNE - Philadelphia/Ne, Pennsylvania, USA
Distance from station: SE 11mi, 18km
Updated: Tue, 21-Oct-2014 8:54pm EDT
Light rain, Overcast
Light rain, Overcast
 Wind from NE
Wind: NE 8 mph , 13 km/h
Temperature: 61°F , 16°C
Dew Point: 52°F , 11°C
Humidity: 72%
Barometer: 29.88 inHg , 1011.9 hPa
Summary: Light rain
Clouds: Overcast
Visibility: 10 miles , 16 km
Cloud details: Mostly cloudy 5000 ft
Overcast 6000 ft
2014/10/22 00:54 KPNE 220054Z 04007KT 10SM -RA BKN050 OVC060 16/11 A2988 RMK AO2 RAB31 SLP116 P0000 T01560106 $
 
KPTW - Pottstown, Pennsylvania, USA
Distance from station: W 20mi, 32km
Updated: Tue, 21-Oct-2014 8:54pm EDT
Overcast
Overcast
 Wind from NNE
Wind: NNE 5 mph , 7 km/h
Temperature: 57°F , 14°C
Dew Point: 48°F , 9°C
Humidity: 72%
Barometer: 29.88 inHg , 1011.9 hPa
Clouds: Overcast
Visibility: 10 miles , 16 km
Cloud details: Mostly cloudy 6000 ft
Overcast 9000 ft
2014/10/22 00:54 KPTW 220054Z AUTO 03004KT 10SM BKN060 OVC090 14/09 A2988 RMK AO2 SLP117 T01440089
KTTN - Trenton, New Jersey, USA
Distance from station: ENE 20mi, 32km
Updated: Tue, 21-Oct-2014 8:53pm EDT
Few Clouds
Few Clouds
 Wind from NE
Wind: NE 9 mph , 15 km/h
Temperature: 57°F , 14°C
Dew Point: 52°F , 11°C
Humidity: 82%
Barometer: 29.87 inHg , 1011.5 hPa
Clouds: Few Clouds
Visibility: 10 miles , 16 km
Cloud details: Few Clouds 4200 ft
2014/10/22 00:53 KTTN 220053Z 04008KT 10SM FEW042 14/11 A2987 RMK AO2 SLP108 T01440111
KUKT - Quakertown Arp, Pennsylvania, USA
Distance from station: NNW 20mi, 32km
Updated: Tue, 21-Oct-2014 9:15pm EDT
Clear
Clear
 Wind from NNE
Wind: NNE 5 mph , 7 km/h
Temperature: 54°F , 12°C
Dew Point: 50°F , 10°C
Humidity: 88%
Barometer: 29.90 inHg , 1012.5 hPa
Clouds: Clear
Visibility: 10 miles , 16 km
2014/10/22 01:15 KUKT 220115Z AUTO 02004KT 10SM CLR 12/10 A2990 RMK AO1
 
KPHL - Philadelphia, Pennsylvania, USA
Distance from station: S 22mi, 36km
Updated: Tue, 21-Oct-2014 8:54pm EDT
Overcast
Overcast
 Wind from N
Wind: N 7 mph , 11 km/h
Temperature: 64°F , 18°C
Dew Point: 48°F , 9°C
Humidity: 56%
Barometer: 29.86 inHg , 1011.2 hPa
Clouds: Overcast
Visibility: 10 miles , 16 km
Cloud details: Mostly cloudy 5000 ft
Overcast 8000 ft
2014/10/22 00:54 KPHL 220054Z 35006KT 10SM BKN050 OVC080 18/09 A2986 RMK AO2 SLP111 T01780089 $
KVAY - Mount Holly, New Jersey, USA
Distance from station: SE 25mi, 41km
Updated: Tue, 21-Oct-2014 8:54pm EDT
Clear
Clear
 Wind from NNW
Wind: NNW 3 mph , 6 km/h
Temperature: 54°F , 12°C
Dew Point: 48°F , 9°C
Humidity: 82%
Barometer: 29.86 inHg , 1011.2 hPa
Clouds: Clear
Visibility: 10 miles , 16 km
2014/10/22 00:54 KVAY 220054Z AUTO 33003KT 10SM CLR 12/09 A2986 RMK AO2 SLP110 T01220094
KXLL - Allentown Queen, Pennsylvania, USA
Distance from station: NNW 31mi, 49km
Updated: Tue, 21-Oct-2014 9:15pm EDT
Clear
Clear
 Wind from NE
Wind: NE 9 mph , 15 km/h
Temperature: 55°F , 13°C
Dew Point: 50°F , 10°C
Humidity: 82%
Barometer: 29.91 inHg , 1012.9 hPa
Clouds: Clear
Visibility: 7 miles , 11 km
2014/10/22 01:15 KXLL 220115Z AUTO 05008KT 7SM CLR 13/10 A2991 RMK AO2
 
KWRI - Wrightst/Mcguire, New Jersey, USA
Distance from station: ESE 34mi, 54km
Updated: Tue, 21-Oct-2014 8:58pm EDT
Partly cloudy
Partly cloudy
 Wind from NNE
Wind: NNE 5 mph , 7 km/h
Temperature: 54°F , 12°C
Dew Point: 54°F , 12°C
Humidity: 100%
Barometer: 29.84 inHg , 1010.5 hPa
Clouds: Partly cloudy
Visibility: 10 miles , 16 km
Cloud details: Partly cloudy 18000 ft
2014/10/22 00:58 KWRI 220058Z AUTO 03004KT 10SM SCT180 12/12 A2984 RMK AO2 SLP108 T01170115
KABE - Allentown, Pennsylvania, USA
Distance from station: NNW 35mi, 56km
Updated: Tue, 21-Oct-2014 8:51pm EDT
Mostly cloudy
Mostly cloudy
 Wind from NE
Wind: NE 7 mph , 11 km/h
Temperature: 55°F , 13°C
Dew Point: 48°F , 9°C
Humidity: 77%
Barometer: 29.89 inHg , 1012.2 hPa
Clouds: Mostly cloudy
Visibility: 10 miles , 16 km
Cloud details: Mostly cloudy 5500 ft
Mostly cloudy 7000 ft
2014/10/22 00:51 KABE 220051Z 05006KT 10SM BKN055 BKN070 13/09 A2989 RMK AO2 RAB06E38 SLP121 P0000 T01280094
KMQS - Coatesville, Pennsylvania, USA
Distance from station: WSW 39mi, 63km
Updated: Tue, 21-Oct-2014 9:15pm EDT
Mostly cloudy
Mostly cloudy
 Wind from N
Wind: N 6 mph , 9 km/h
Temperature: 55°F , 13°C
Dew Point: 48°F , 9°C
Humidity: 77%
Barometer: 29.89 inHg , 1012.2 hPa
Clouds: Mostly cloudy
Visibility: 10 miles , 16 km
Cloud details: Partly cloudy 6000 ft
Mostly cloudy 7500 ft
2014/10/22 01:15 KMQS 220115Z AUTO 36005KT 10SM SCT060 BKN075 13/09 A2989 RMK AO2
 
KSMQ - Somerville, New Jersey, USA
Distance from station: NE 40mi, 64km
Updated: Tue, 21-Oct-2014 8:53pm EDT
Few Clouds
Few Clouds
 Wind from N
Wind: N 5 mph , 7 km/h
Temperature: 54°F , 12°C
Dew Point: 52°F , 11°C
Humidity: 94%
Barometer: 29.87 inHg , 1011.5 hPa
Clouds: Few Clouds
Visibility: 10 miles , 16 km
Cloud details: Few Clouds 8500 ft
2014/10/22 00:53 KSMQ 220053Z AUTO 35004KT 10SM FEW085 12/11 A2987 RMK AO2 SLP116 T01220106
KILG - Wilmington, Delaware, USA
Distance from station: SSW 42mi, 68km
Updated: Tue, 21-Oct-2014 8:51pm EDT
Partly cloudy
Partly cloudy
 Wind from NNW
Wind: NNW 6 mph , 9 km/h
Temperature: 57°F , 14°C
Dew Point: 52°F , 11°C
Humidity: 82%
Barometer: 29.86 inHg , 1011.2 hPa
Clouds: Partly cloudy
Visibility: 10 miles , 16 km
Cloud details: Partly cloudy 7000 ft
2014/10/22 00:51 KILG 220051Z 34005KT 10SM SCT070 14/11 A2986 RMK AO2 SLP111 T01390111
KRDG - Reading, Pennsylvania, USA
Distance from station: WNW 43mi, 70km
Updated: Tue, 21-Oct-2014 8:54pm EDT
Mostly cloudy
Mostly cloudy
 Wind from NNE
Wind: NNE 3 mph , 6 km/h
Temperature: 55°F , 13°C
Dew Point: 48°F , 9°C
Humidity: 77%
Barometer: 29.88 inHg , 1011.9 hPa
Clouds: Mostly cloudy
Visibility: 10 miles , 16 km
Cloud details: Mostly cloudy 8500 ft
2014/10/22 00:54 KRDG 220054Z AUTO 02003KT 10SM BKN085 13/09 A2988 RMK AO2 SLP122 T01280089
 
KNEL - Lakehurst Nas, New Jersey, USA
Distance from station: ESE 46mi, 74km
Updated: Mon, 06-Oct-2014 4:00pm EDT
NOT Current
Clear
Clear
 Wind from S
Wind: S 15 mph , 24 km/h, Gust: 23 mph , 37 km/h
Temperature: 70°F , 21°C
Dew Point: 46°F , 8°C
Humidity: 43%
Barometer: 30.01 inHg , 1016.3 hPa
Clouds: Clear
Visibility: 10 miles , 16 km
2014/10/06 20:00 KNEL 062000Z AUTO 17013G20KT 10SM CLR 21/08 A3001 RMK AO2 SLP163 T02110083 $
KMJX - Toms River, New Jersey, USA
Distance from station: ESE 50mi, 80km
Updated: Tue, 21-Oct-2014 9:15pm EDT
Clear
Clear
 Wind from calm
Wind: Calm
Temperature: 50°F , 10°C
Dew Point: 46°F , 8°C
Humidity: 88%
Barometer: 29.87 inHg , 1011.5 hPa
Clouds: Clear
Visibility: 10 miles , 16 km
2014/10/22 01:15 KMJX 220115Z AUTO 00000KT 10SM CLR 10/08 A2987 RMK AO1